Time;durP1;ratioP1;P1;durP2;ratioP2;P2;SDS_P1;SDS_P2;PMS_P1;PMS_P2;Temp;Humidity;BMP_temperature;BMP_pressure;BME280_temperature;BME280_humidity;BME280_pressure;Samples;Min_cycle;Max_cycle;Signal;HPM_P1;HPM_P2
2023/12/25 00:01:58;;;;;;;0.30;0.30;;;;;;;;;;5057400;28;20620;-67
2023/12/25 00:04:23;;;;;;;0.30;0.30;;;;;;;;;;5058021;28;20045;-69
2023/12/25 00:06:49;;;;;;;0.30;0.30;;;;;;;;;;5057107;28;20067;-70
2023/12/25 00:09:16;;;;;;;0.20;0.20;;;;;;;;;;5057800;28;20048;-67
2023/12/25 00:11:42;;;;;;;0.30;0.30;;;;;;;;;;5058183;28;20079;-67
2023/12/25 00:14:07;;;;;;;0.28;0.20;;;;;;;;;;5057094;28;20083;-67
2023/12/25 00:16:33;;;;;;;0.10;0.10;;;;;;;;;;5057818;28;20072;-67
2023/12/25 00:18:58;;;;;;;1.02;0.30;;;;;;;;;;5056354;28;20036;-66
2023/12/25 00:21:24;;;;;;;0.30;0.30;;;;;;;;;;5057914;28;20506;-68
2023/12/25 00:23:49;;;;;;;0.20;0.20;;;;;;;;;;5057298;28;20568;-70
2023/12/25 00:26:15;;;;;;;0.20;0.20;;;;;;;;;;5037423;28;20058;-66
2023/12/25 00:28:41;;;;;;;0.22;0.22;;;;;;;;;;5036832;28;20118;-70
2023/12/25 00:31:07;;;;;;;0.20;0.20;;;;;;;;;;5038282;28;20045;-66
2023/12/25 00:33:32;;;;;;;0.20;0.20;;;;;;;;;;5038516;28;20048;-67
2023/12/25 00:35:59;;;;;;;0.63;0.30;;;;;;;;;;5034445;28;20052;-70
2023/12/25 00:38:24;;;;;;;0.20;0.20;;;;;;;;;;5035947;28;20045;-66
2023/12/25 00:40:49;;;;;;;0.43;0.30;;;;;;;;;;5034816;28;20041;-69
2023/12/25 00:43:15;;;;;;;0.65;0.40;;;;;;;;;;5037634;28;20059;-68
2023/12/25 00:45:40;;;;;;;0.17;0.17;;;;;;;;;;5035593;28;20064;-68
2023/12/25 00:48:06;;;;;;;0.20;0.20;;;;;;;;;;5035231;28;20131;-69
2023/12/25 00:50:31;;;;;;;0.20;0.20;;;;;;;;;;5035693;28;21077;-69
2023/12/25 00:52:56;;;;;;;0.20;0.20;;;;;;;;;;5037251;28;20044;-66
2023/12/25 00:55:22;;;;;;;0.43;0.40;;;;;;;;;;5035413;28;20346;-66
2023/12/25 00:57:47;;;;;;;0.60;0.40;;;;;;;;;;5035857;28;20051;-66
2023/12/25 01:00:13;;;;;;;0.30;0.30;;;;;;;;;;5035131;28;20622;-67
2023/12/25 01:02:38;;;;;;;0.52;0.38;;;;;;;;;;5036710;28;20568;-67
2023/12/25 01:05:04;;;;;;;0.28;0.28;;;;;;;;;;5052377;28;20503;-65
2023/12/25 01:07:29;;;;;;;0.20;0.20;;;;;;;;;;5037527;28;20079;-69
2023/12/25 01:09:55;;;;;;;0.30;0.30;;;;;;;;;;5035438;28;20049;-66
2023/12/25 01:12:20;;;;;;;0.10;0.10;;;;;;;;;;5019650;28;20132;-69
2023/12/25 01:14:46;;;;;;;0.57;0.25;;;;;;;;;;5035505;28;20511;-65
2023/12/25 01:17:11;;;;;;;0.30;0.30;;;;;;;;;;5036815;28;20250;-67
2023/12/25 01:19:37;;;;;;;0.20;0.20;;;;;;;;;;5035869;28;20407;-66
2023/12/25 01:22:03;;;;;;;0.30;0.30;;;;;;;;;;5037156;28;20063;-68
2023/12/25 01:24:29;;;;;;;0.25;0.25;;;;;;;;;;5035881;28;20522;-68
2023/12/25 01:26:54;;;;;;;0.13;0.13;;;;;;;;;;5036995;28;20041;-70
2023/12/25 01:29:19;;;;;;;0.20;0.20;;;;;;;;;;5017183;28;20069;-66
2023/12/25 01:31:45;;;;;;;0.20;0.20;;;;;;;;;;5035534;28;21125;-67
2023/12/25 01:34:10;;;;;;;0.75;0.30;;;;;;;;;;5009068;28;20045;-67
2023/12/25 01:36:38;;;;;;;0.17;0.17;;;;;;;;;;5039237;28;20309;-66
2023/12/25 01:39:03;;;;;;;0.30;0.30;;;;;;;;;;5040126;28;20094;-68
2023/12/25 01:41:29;;;;;;;0.30;0.30;;;;;;;;;;5040249;28;20052;-69
2023/12/25 01:43:54;;;;;;;0.17;0.17;;;;;;;;;;5038951;28;20059;-66
2023/12/25 01:46:21;;;;;;;1.38;0.30;;;;;;;;;;5039634;28;20057;-66
2023/12/25 01:48:49;;;;;;;0.30;0.30;;;;;;;;;;5039534;28;20392;-68
2023/12/25 01:51:15;;;;;;;0.10;0.10;;;;;;;;;;5040818;28;20555;-66
2023/12/25 01:53:40;;;;;;;0.40;0.28;;;;;;;;;;5040737;28;20732;-70
2023/12/25 01:56:06;;;;;;;0.20;0.20;;;;;;;;;;5038129;28;20789;-64
2023/12/25 01:58:32;;;;;;;0.30;0.30;;;;;;;;;;5039738;28;20122;-69
2023/12/25 02:00:57;;;;;;;0.50;0.50;;;;;;;;;;5040393;28;20458;-70
2023/12/25 02:03:23;;;;;;;0.30;0.30;;;;;;;;;;5038675;28;20057;-67
2023/12/25 02:05:48;;;;;;;0.20;0.20;;;;;;;;;;5040175;28;20045;-71
2023/12/25 02:08:15;;;;;;;0.20;0.20;;;;;;;;;;5039144;28;20060;-66
2023/12/25 02:10:40;;;;;;;0.20;0.20;;;;;;;;;;5040437;28;20423;-67
2023/12/25 02:13:06;;;;;;;0.20;0.20;;;;;;;;;;5040378;28;20036;-65
2023/12/25 02:15:32;;;;;;;0.20;0.20;;;;;;;;;;5040647;28;20041;-65
2023/12/25 02:17:58;;;;;;;0.30;0.30;;;;;;;;;;5037985;28;20499;-68
2023/12/25 02:20:23;;;;;;;0.90;0.40;;;;;;;;;;5039229;28;20052;-70
2023/12/25 02:22:50;;;;;;;0.30;0.30;;;;;;;;;;5038598;28;20037;-70
2023/12/25 02:25:32;;;;;;;0.30;0.30;;;;;;;;;;5039639;28;20049;-65
2023/12/25 02:27:58;;;;;;;0.20;0.20;;;;;;;;;;5039414;28;20055;-68
2023/12/25 02:30:25;;;;;;;3.30;0.30;;;;;;;;;;5039441;28;20049;-67
2023/12/25 02:32:51;;;;;;;0.10;0.10;;;;;;;;;;5038403;28;20488;-66
2023/12/25 02:35:16;;;;;;;0.20;0.20;;;;;;;;;;5021114;28;20045;-68
2023/12/25 02:37:42;;;;;;;0.15;0.15;;;;;;;;;;5035911;28;20060;-69
2023/12/25 02:40:08;;;;;;;0.55;0.30;;;;;;;;;;5041205;28;20041;-65
2023/12/25 02:42:34;;;;;;;0.20;0.20;;;;;;;;;;5041724;28;20354;-66
2023/12/25 02:44:59;;;;;;;0.45;0.32;;;;;;;;;;5025807;28;20049;-69
2023/12/25 02:47:25;;;;;;;1.65;0.50;;;;;;;;;;5046582;28;20065;-66
2023/12/25 02:49:50;;;;;;;0.40;0.40;;;;;;;;;;5048912;28;20044;-67
2023/12/25 02:52:16;;;;;;;0.20;0.20;;;;;;;;;;5046633;28;20518;-64
2023/12/25 02:54:42;;;;;;;0.22;0.22;;;;;;;;;;5040684;28;20072;-67
2023/12/25 02:57:07;;;;;;;0.20;0.20;;;;;;;;;;5035714;28;20189;-68
2023/12/25 02:59:32;;;;;;;0.70;0.30;;;;;;;;;;5040400;28;20056;-66
2023/12/25 03:01:58;;;;;;;1.95;0.32;;;;;;;;;;5039647;28;20044;-66
2023/12/25 03:04:23;;;;;;;0.40;0.35;;;;;;;;;;5028208;28;20473;-68
2023/12/25 03:06:49;;;;;;;0.30;0.30;;;;;;;;;;5050678;28;20429;-66
2023/12/25 03:09:14;;;;;;;0.30;0.30;;;;;;;;;;5052490;28;20079;-66
2023/12/25 03:11:39;;;;;;;0.20;0.20;;;;;;;;;;5051057;28;20460;-70
2023/12/25 03:14:05;;;;;;;0.20;0.20;;;;;;;;;;5049299;28;20036;-66
2023/12/25 03:16:30;;;;;;;0.20;0.20;;;;;;;;;;5052299;28;20691;-68
2023/12/25 03:18:56;;;;;;;0.25;0.25;;;;;;;;;;5038651;28;20040;-72
2023/12/25 03:21:22;;;;;;;0.20;0.20;;;;;;;;;;5051306;28;20071;-68
2023/12/25 03:23:47;;;;;;;0.20;0.20;;;;;;;;;;5024725;28;20094;-66
2023/12/25 03:26:13;;;;;;;0.25;0.25;;;;;;;;;;5036027;28;20052;-67
2023/12/25 03:28:39;;;;;;;0.38;0.25;;;;;;;;;;5037759;28;20045;-66
2023/12/25 03:31:04;;;;;;;0.20;0.20;;;;;;;;;;5037436;28;20052;-69
2023/12/25 03:33:30;;;;;;;0.30;0.30;;;;;;;;;;5037487;28;20291;-66
2023/12/25 03:35:55;;;;;;;0.30;0.30;;;;;;;;;;5035676;28;20398;-65
2023/12/25 03:38:21;;;;;;;0.30;0.30;;;;;;;;;;5037002;28;20191;-67
2023/12/25 03:40:46;;;;;;;0.20;0.20;;;;;;;;;;5038630;28;20085;-65
2023/12/25 03:43:11;;;;;;;0.30;0.30;;;;;;;;;;5038304;28;20510;-65
2023/12/25 03:45:37;;;;;;;0.20;0.20;;;;;;;;;;5037043;28;20041;-65
2023/12/25 03:48:03;;;;;;;0.20;0.20;;;;;;;;;;5038849;28;20455;-64
2023/12/25 03:50:29;;;;;;;0.30;0.30;;;;;;;;;;5041988;28;20044;-68
2023/12/25 03:52:54;;;;;;;0.30;0.30;;;;;;;;;;5038004;28;20048;-66
2023/12/25 03:55:19;;;;;;;0.30;0.30;;;;;;;;;;5039824;28;20045;-66
2023/12/25 03:57:45;;;;;;;0.20;0.20;;;;;;;;;;5037531;28;20175;-63
2023/12/25 04:00:11;;;;;;;0.20;0.20;;;;;;;;;;5036193;28;20079;-65
2023/12/25 04:02:42;;;;;;;3.20;0.40;;;;;;;;;;5036607;28;20372;-64
2023/12/25 04:05:09;;;;;;;0.30;0.30;;;;;;;;;;5032750;28;20156;-66
2023/12/25 04:07:35;;;;;;;0.40;0.40;;;;;;;;;;5036321;28;20056;-67
2023/12/25 04:10:02;;;;;;;0.30;0.30;;;;;;;;;;5037743;28;20045;-66
2023/12/25 04:12:27;;;;;;;0.55;0.40;;;;;;;;;;5036973;28;20534;-64
2023/12/25 04:14:53;;;;;;;0.40;0.32;;;;;;;;;;5036242;28;20155;-66
2023/12/25 04:17:18;;;;;;;0.20;0.20;;;;;;;;;;5036321;28;20045;-66
2023/12/25 04:19:44;;;;;;;0.28;0.28;;;;;;;;;;5037033;28;20157;-65
2023/12/25 04:22:09;;;;;;;0.20;0.20;;;;;;;;;;5021427;28;20093;-65
2023/12/25 04:24:35;;;;;;;0.20;0.20;;;;;;;;;;5038501;28;20129;-64
2023/12/25 04:27:00;;;;;;;0.20;0.20;;;;;;;;;;5042235;28;20722;-65
2023/12/25 04:29:25;;;;;;;0.50;0.20;;;;;;;;;;5039139;28;20395;-67
2023/12/25 04:31:52;;;;;;;2.35;0.40;;;;;;;;;;5038083;28;20052;-65
2023/12/25 04:34:18;;;;;;;0.30;0.30;;;;;;;;;;5037742;28;20507;-65
2023/12/25 04:36:43;;;;;;;0.30;0.30;;;;;;;;;;5035200;28;20048;-65
2023/12/25 04:39:09;;;;;;;1.20;0.30;;;;;;;;;;5035503;28;20041;-64
2023/12/25 04:41:34;;;;;;;0.28;0.28;;;;;;;;;;5036552;28;20123;-66
2023/12/25 04:44:00;;;;;;;0.30;0.20;;;;;;;;;;5035391;28;20183;-63
2023/12/25 04:46:25;;;;;;;0.20;0.20;;;;;;;;;;5035040;28;20045;-64
2023/12/25 04:48:50;;;;;;;0.30;0.30;;;;;;;;;;5035442;28;21071;-66
2023/12/25 04:51:16;;;;;;;0.25;0.25;;;;;;;;;;5036683;28;20036;-64
2023/12/25 04:53:41;;;;;;;1.13;0.50;;;;;;;;;;5035788;28;20098;-67
2023/12/25 04:56:10;;;;;;;0.22;0.22;;;;;;;;;;5034951;28;20267;-65
2023/12/25 04:58:36;;;;;;;0.30;0.30;;;;;;;;;;5037219;28;20048;-65
2023/12/25 05:01:03;;;;;;;1.83;0.28;;;;;;;;;;5037103;28;20040;-66
2023/12/25 05:03:28;;;;;;;0.30;0.30;;;;;;;;;;5035987;28;20045;-65
2023/12/25 05:05:54;;;;;;;0.10;0.10;;;;;;;;;;5034677;28;20430;-66
2023/12/25 05:08:20;;;;;;;0.50;0.30;;;;;;;;;;5034485;28;20041;-65
2023/12/25 05:10:46;;;;;;;0.20;0.20;;;;;;;;;;5021225;28;20099;-66
2023/12/25 05:13:11;;;;;;;0.13;0.13;;;;;;;;;;5027923;28;20863;-64
2023/12/25 05:15:37;;;;;;;0.20;0.20;;;;;;;;;;5030081;28;20602;-67
2023/12/25 05:18:02;;;;;;;0.20;0.20;;;;;;;;;;5034614;28;20048;-67
2023/12/25 05:20:28;;;;;;;0.30;0.30;;;;;;;;;;5035082;28;20464;-63
2023/12/25 05:22:53;;;;;;;0.20;0.20;;;;;;;;;;5036864;28;20041;-64
2023/12/25 05:25:19;;;;;;;0.30;0.30;;;;;;;;;;5036832;28;20668;-65
2023/12/25 05:27:44;;;;;;;0.13;0.10;;;;;;;;;;5037122;28;20049;-65
2023/12/25 05:30:10;;;;;;;0.90;0.40;;;;;;;;;;5036019;28;20466;-64
2023/12/25 05:32:36;;;;;;;0.20;0.20;;;;;;;;;;5037458;28;20044;-66
2023/12/25 05:35:06;;;;;;;1.17;0.40;;;;;;;;;;5036675;28;20056;-62
2023/12/25 05:37:32;;;;;;;1.35;0.20;;;;;;;;;;5024010;28;20103;-65
2023/12/25 05:39:57;;;;;;;0.47;0.30;;;;;;;;;;5019204;28;20515;-63
2023/12/25 05:42:23;;;;;;;0.20;0.20;;;;;;;;;;5017890;28;20053;-64
2023/12/25 05:44:48;;;;;;;0.30;0.30;;;;;;;;;;5031471;28;20067;-65
2023/12/25 05:47:13;;;;;;;0.30;0.30;;;;;;;;;;5048376;28;20045;-63
2023/12/25 05:49:39;;;;;;;0.17;0.17;;;;;;;;;;5053519;28;20414;-66
2023/12/25 05:52:05;;;;;;;0.38;0.38;;;;;;;;;;5049590;28;20463;-64
2023/12/25 05:54:30;;;;;;;0.20;0.20;;;;;;;;;;5041766;28;20075;-63
2023/12/25 05:56:56;;;;;;;0.17;0.17;;;;;;;;;;5035675;28;20053;-63
2023/12/25 05:59:21;;;;;;;0.13;0.13;;;;;;;;;;5036401;28;20052;-65
2023/12/25 06:01:46;;;;;;;0.30;0.30;;;;;;;;;;5036903;28;20136;-63
2023/12/25 06:04:12;;;;;;;0.25;0.25;;;;;;;;;;5034359;28;20126;-66
2023/12/25 06:06:37;;;;;;;0.30;0.30;;;;;;;;;;5040077;28;20135;-63
2023/12/25 06:09:03;;;;;;;0.22;0.22;;;;;;;;;;5048653;28;20064;-67
2023/12/25 06:11:28;;;;;;;0.20;0.20;;;;;;;;;;5051693;28;20132;-66
2023/12/25 06:13:53;;;;;;;0.20;0.20;;;;;;;;;;5052167;28;20422;-64
2023/12/25 06:16:19;;;;;;;0.17;0.17;;;;;;;;;;5037048;28;20057;-66
2023/12/25 06:18:44;;;;;;;0.40;0.40;;;;;;;;;;5046145;28;20109;-66
2023/12/25 06:21:12;;;;;;;0.30;0.30;;;;;;;;;;5039343;28;20056;-65
2023/12/25 06:23:37;;;;;;;0.57;0.40;;;;;;;;;;5050313;28;20415;-64
2023/12/25 06:26:03;;;;;;;0.20;0.20;;;;;;;;;;5051973;28;20475;-66
2023/12/25 06:28:29;;;;;;;0.32;0.30;;;;;;;;;;5053762;28;20519;-63
2023/12/25 06:30:54;;;;;;;0.22;0.22;;;;;;;;;;5054968;28;20040;-66
2023/12/25 06:33:19;;;;;;;2.30;0.30;;;;;;;;;;5051264;28;20127;-65
2023/12/25 06:35:45;;;;;;;0.20;0.20;;;;;;;;;;5042811;28;20286;-65
2023/12/25 06:38:12;;;;;;;0.45;0.30;;;;;;;;;;5049534;28;20397;-66
2023/12/25 06:40:37;;;;;;;0.30;0.30;;;;;;;;;;5055856;28;20074;-67
2023/12/25 06:43:02;;;;;;;0.38;0.38;;;;;;;;;;5053526;28;20045;-66
2023/12/25 06:45:28;;;;;;;0.57;0.30;;;;;;;;;;5055290;28;20086;-66
2023/12/25 06:47:53;;;;;;;0.25;0.25;;;;;;;;;;5054752;28;20040;-66
2023/12/25 06:50:19;;;;;;;0.20;0.20;;;;;;;;;;5053462;28;20045;-63
2023/12/25 06:52:44;;;;;;;2.60;0.35;;;;;;;;;;5055644;28;20048;-67
2023/12/25 06:55:10;;;;;;;0.22;0.22;;;;;;;;;;5041027;28;20128;-63
2023/12/25 06:57:36;;;;;;;0.40;0.40;;;;;;;;;;5038814;28;20063;-63
2023/12/25 07:00:03;;;;;;;0.70;0.40;;;;;;;;;;5041527;28;20052;-66
2023/12/25 07:02:29;;;;;;;0.20;0.20;;;;;;;;;;5040673;28;21011;-66
2023/12/25 07:04:55;;;;;;;0.13;0.13;;;;;;;;;;5055123;28;20044;-66
2023/12/25 07:07:20;;;;;;;0.40;0.40;;;;;;;;;;5051972;28;20037;-64
2023/12/25 07:09:46;;;;;;;0.20;0.20;;;;;;;;;;5043952;28;20848;-66
2023/12/25 07:12:11;;;;;;;0.80;0.30;;;;;;;;;;5038637;28;20098;-65
2023/12/25 07:14:37;;;;;;;0.10;0.10;;;;;;;;;;5038605;28;20049;-65
2023/12/25 07:17:04;;;;;;;0.30;0.30;;;;;;;;;;5045720;28;20469;-65
2023/12/25 07:19:30;;;;;;;0.32;0.32;;;;;;;;;;5038646;28;20048;-64
2023/12/25 07:21:55;;;;;;;0.32;0.32;;;;;;;;;;5044197;28;20292;-65
2023/12/25 07:24:20;;;;;;;0.20;0.20;;;;;;;;;;5052185;28;20052;-66
2023/12/25 07:26:46;;;;;;;2.35;0.73;;;;;;;;;;5055550;28;20770;-66
2023/12/25 07:29:11;;;;;;;0.30;0.30;;;;;;;;;;5051880;28;20044;-66
2023/12/25 07:31:36;;;;;;;0.35;0.35;;;;;;;;;;5054643;28;20052;-66
2023/12/25 07:34:02;;;;;;;0.30;0.30;;;;;;;;;;5053454;28;20040;-66
2023/12/25 07:36:27;;;;;;;0.50;0.47;;;;;;;;;;5053523;28;20507;-64
2023/12/25 07:38:53;;;;;;;1.42;0.60;;;;;;;;;;5055295;28;20045;-66
2023/12/25 07:41:18;;;;;;;0.52;0.52;;;;;;;;;;5053103;28;20133;-66
2023/12/25 07:43:43;;;;;;;0.32;0.32;;;;;;;;;;5038539;28;20124;-65
2023/12/25 07:46:09;;;;;;;0.38;0.38;;;;;;;;;;5036175;28;20523;-66
2023/12/25 07:48:35;;;;;;;1.58;0.77;;;;;;;;;;5038790;28;20052;-66
2023/12/25 07:51:01;;;;;;;0.40;0.40;;;;;;;;;;5044852;28;20071;-65
2023/12/25 07:53:26;;;;;;;0.55;0.40;;;;;;;;;;5050040;28;20743;-64
2023/12/25 07:55:51;;;;;;;0.47;0.40;;;;;;;;;;5049583;28;20075;-67
2023/12/25 07:58:17;;;;;;;0.50;0.50;;;;;;;;;;5053013;28;20052;-67
2023/12/25 08:00:42;;;;;;;1.42;0.40;;;;;;;;;;5054116;28;20526;-70
2023/12/25 08:03:10;;;;;;;0.40;0.40;;;;;;;;;;5053872;28;20046;-66
2023/12/25 08:05:35;;;;;;;1.08;0.75;;;;;;;;;;5053392;28;20044;-66
2023/12/25 08:08:00;;;;;;;0.57;0.57;;;;;;;;;;5054485;28;20044;-66
2023/12/25 08:10:26;;;;;;;0.68;0.63;;;;;;;;;;5052228;28;20052;-67
2023/12/25 08:12:51;;;;;;;0.60;0.60;;;;;;;;;;5055687;28;20040;-64
2023/12/25 08:15:17;;;;;;;0.40;0.40;;;;;;;;;;5033778;28;20067;-67
2023/12/25 08:17:42;;;;;;;0.38;0.38;;;;;;;;;;5051002;28;20119;-64
2023/12/25 08:20:09;;;;;;;0.75;0.55;;;;;;;;;;5037713;28;20494;-65
2023/12/25 08:22:35;;;;;;;0.50;0.50;;;;;;;;;;5054509;28;20657;-67
2023/12/25 08:25:01;;;;;;;0.55;0.50;;;;;;;;;;5055307;28;20051;-65
2023/12/25 08:27:26;;;;;;;0.47;0.45;;;;;;;;;;5051941;28;20048;-67
2023/12/25 08:29:52;;;;;;;0.57;0.57;;;;;;;;;;5056025;28;20561;-65
2023/12/25 08:32:18;;;;;;;0.93;0.90;;;;;;;;;;5045452;28;20131;-66
2023/12/25 08:34:44;;;;;;;0.50;0.50;;;;;;;;;;5043850;28;20052;-67
2023/12/25 08:37:10;;;;;;;0.60;0.38;;;;;;;;;;5038537;28;20048;-67
2023/12/25 08:39:35;;;;;;;0.45;0.32;;;;;;;;;;5036808;28;20052;-67
2023/12/25 08:42:03;;;;;;;0.60;0.60;;;;;;;;;;5035834;28;20132;-67
2023/12/25 08:44:28;;;;;;;0.50;0.50;;;;;;;;;;5036390;28;20048;-67
2023/12/25 08:46:54;;;;;;;0.40;0.40;;;;;;;;;;5037550;28;20121;-66
2023/12/25 08:49:19;;;;;;;1.58;0.88;;;;;;;;;;5043561;28;20036;-68
2023/12/25 08:51:45;;;;;;;3.13;0.70;;;;;;;;;;5042919;28;20040;-66
2023/12/25 08:54:10;;;;;;;0.80;0.68;;;;;;;;;;5038569;28;20060;-67
2023/12/25 08:56:36;;;;;;;0.55;0.50;;;;;;;;;;5047395;28;21045;-67
2023/12/25 08:59:01;;;;;;;0.77;0.77;;;;;;;;;;5048552;28;20112;-65
2023/12/25 09:01:29;;;;;;;0.63;0.63;;;;;;;;;;5045025;28;20517;-67
2023/12/25 09:03:54;;;;;;;2.47;0.70;;;;;;;;;;5047847;28;20091;-68
2023/12/25 09:06:20;;;;;;;0.80;0.65;;;;;;;;;;5036554;28;20056;-68
2023/12/25 09:08:46;;;;;;;0.50;0.50;;;;;;;;;;5042841;28;20045;-66
2023/12/25 09:11:11;;;;;;;0.50;0.50;;;;;;;;;;5035168;28;20037;-66
2023/12/25 09:13:37;;;;;;;0.47;0.47;;;;;;;;;;5046486;28;20086;-67
2023/12/25 09:16:02;;;;;;;0.73;0.50;;;;;;;;;;5046158;28;20045;-67
2023/12/25 09:18:29;;;;;;;0.40;0.40;;;;;;;;;;5037667;28;20075;-64
2023/12/25 09:20:57;;;;;;;0.55;0.52;;;;;;;;;;5049171;28;20473;-67
2023/12/25 09:23:22;;;;;;;0.32;0.32;;;;;;;;;;5035956;28;20044;-67
2023/12/25 09:25:48;;;;;;;0.40;0.40;;;;;;;;;;5043851;28;20037;-66
2023/12/25 09:28:13;;;;;;;0.28;0.28;;;;;;;;;;5035340;28;20292;-68
2023/12/25 09:30:39;;;;;;;0.52;0.45;;;;;;;;;;5040586;28;20593;-66
2023/12/25 09:33:04;;;;;;;0.43;0.43;;;;;;;;;;5035928;28;20557;-67
2023/12/25 09:35:30;;;;;;;0.43;0.43;;;;;;;;;;5036272;28;20041;-66
2023/12/25 09:37:56;;;;;;;0.52;0.52;;;;;;;;;;5043043;28;20060;-73
2023/12/25 09:40:21;;;;;;;0.30;0.30;;;;;;;;;;5039297;28;20059;-66
2023/12/25 09:42:49;;;;;;;0.38;0.38;;;;;;;;;;5050301;28;20045;-67
2023/12/25 09:45:16;;;;;;;3.35;0.60;;;;;;;;;;5035453;28;20511;-65
2023/12/25 09:47:41;;;;;;;0.43;0.40;;;;;;;;;;5036972;28;20228;-66
2023/12/25 09:50:09;;;;;;;0.85;0.60;;;;;;;;;;5035832;28;20045;-67
2023/12/25 09:52:35;;;;;;;0.50;0.50;;;;;;;;;;5053439;28;20056;-67
2023/12/25 09:55:00;;;;;;;0.43;0.43;;;;;;;;;;5040513;28;20045;-68
2023/12/25 09:57:28;;;;;;;0.50;0.50;;;;;;;;;;5047311;28;20048;-65
2023/12/25 09:59:55;;;;;;;0.43;0.40;;;;;;;;;;5040156;28;20049;-66
2023/12/25 10:02:22;;;;;;;0.43;0.43;;;;;;;;;;5040094;28;20041;-67
2023/12/25 10:04:49;;;;;;;0.47;0.47;;;;;;;;;;5040067;28;20040;-65
2023/12/25 10:07:20;;;;;;;0.50;0.50;;;;;;;;;;5039838;28;20049;-67
2023/12/25 10:09:49;;;;;;;0.43;0.43;;;;;;;;;;5039998;28;20044;-67
2023/12/25 10:12:14;;;;;;;0.50;0.50;;;;;;;;;;5040365;28;20157;-65
2023/12/25 10:14:39;;;;;;;0.45;0.43;;;;;;;;;;5052378;28;20045;-67
2023/12/25 10:17:05;;;;;;;0.40;0.40;;;;;;;;;;5048136;28;20411;-65
2023/12/25 10:19:30;;;;;;;1.15;0.60;;;;;;;;;;5055358;28;20171;-66
2023/12/25 10:21:55;;;;;;;0.30;0.30;;;;;;;;;;5047028;28;20546;-66
2023/12/25 10:24:29;;;;;;;0.20;0.20;;;;;;;;;;5038961;28;20483;-66
2023/12/25 10:26:57;;;;;;;0.28;0.28;;;;;;;;;;5039930;28;20318;-64
2023/12/25 10:29:33;;;;;;;0.35;0.35;;;;;;;;;;5039471;28;20032;-67
2023/12/25 10:32:15;;;;;;;0.30;0.30;;;;;;;;;;5039718;28;20041;-65
2023/12/25 10:34:41;;;;;;;1.65;0.30;;;;;;;;;;5039916;28;20049;-69
2023/12/25 10:37:06;;;;;;;0.30;0.30;;;;;;;;;;5040097;28;20055;-66
2023/12/25 10:39:33;;;;;;;0.40;0.40;;;;;;;;;;5039205;28;20049;-67
2023/12/25 10:41:59;;;;;;;0.30;0.30;;;;;;;;;;5039610;28;20136;-67
2023/12/25 10:44:25;;;;;;;0.40;0.40;;;;;;;;;;5039784;28;20064;-66
2023/12/25 10:46:52;;;;;;;0.50;0.50;;;;;;;;;;5040349;28;20514;-67
2023/12/25 10:49:19;;;;;;;0.30;0.30;;;;;;;;;;5038714;28;20052;-68
2023/12/25 10:51:46;;;;;;;0.22;0.22;;;;;;;;;;5039697;28;20855;-66
2023/12/25 10:54:14;;;;;;;0.30;0.30;;;;;;;;;;5039537;28;20052;-67
2023/12/25 10:56:39;;;;;;;0.40;0.40;;;;;;;;;;5038267;28;20475;-67
2023/12/25 10:59:31;;;;;;;0.95;0.57;;;;;;;;;;5038360;28;20097;-65
2023/12/25 11:02:00;;;;;;;0.50;0.40;;;;;;;;;;5037581;28;20094;-70
2023/12/25 11:04:26;;;;;;;2.28;0.28;;;;;;;;;;5038567;28;20456;-64
2023/12/25 11:06:54;;;;;;;0.30;0.30;;;;;;;;;;5039180;28;20036;-69
2023/12/25 11:09:22;;;;;;;0.30;0.30;;;;;;;;;;5039865;28;20044;-66
2023/12/25 11:11:48;;;;;;;0.52;0.52;;;;;;;;;;5039024;28;20443;-66
2023/12/25 11:14:14;;;;;;;0.30;0.30;;;;;;;;;;5039031;28;20044;-67
2023/12/25 11:16:40;;;;;;;0.55;0.55;;;;;;;;;;5038771;28;20049;-67
2023/12/25 11:19:05;;;;;;;1.20;0.45;;;;;;;;;;5037660;28;20152;-66
2023/12/25 11:21:33;;;;;;;0.40;0.40;;;;;;;;;;5038276;28;20110;-67
2023/12/25 11:24:00;;;;;;;0.40;0.40;;;;;;;;;;5036090;28;20522;-65
2023/12/25 11:26:27;;;;;;;0.40;0.40;;;;;;;;;;5038975;28;20095;-65
2023/12/25 11:29:12;;;;;;;0.40;0.40;;;;;;;;;;5039035;28;20037;-67
2023/12/25 11:31:42;;;;;;;0.40;0.30;;;;;;;;;;5039363;28;20499;-65
2023/12/25 11:34:40;;;;;;;0.30;0.30;;;;;;;;;;5037910;28;20041;-66
2023/12/25 11:37:19;;;;;;;0.63;0.40;;;;;;;;;;5018216;28;20061;-65
2023/12/25 11:39:59;;;;;;;0.30;0.30;;;;;;;;;;5039219;28;20591;-67
2023/12/25 11:42:29;;;;;;;0.30;0.30;;;;;;;;;;5052928;28;20059;-66
2023/12/25 11:44:58;;;;;;;0.32;0.32;;;;;;;;;;5035727;28;20060;-67
2023/12/25 11:47:28;;;;;;;0.30;0.30;;;;;;;;;;5020504;28;20095;-67
2023/12/25 11:49:56;;;;;;;0.40;0.40;;;;;;;;;;5024683;28;20056;-67
2023/12/25 11:52:53;;;;;;;0.40;0.40;;;;;;;;;;5021014;28;20676;-67
2023/12/25 11:55:24;;;;;;;0.43;0.40;;;;;;;;;;5016839;28;20049;-68
2023/12/25 11:57:50;;;;;;;1.83;0.40;;;;;;;;;;5024700;28;20103;-67
2023/12/25 12:00:25;;;;;;;0.50;0.50;;;;;;;;;;5022959;28;20181;-68
2023/12/25 12:02:50;;;;;;;0.30;0.30;;;;;;;;;;5019582;28;20515;-69
2023/12/25 12:05:16;;;;;;;0.20;0.20;;;;;;;;;;5027820;28;20037;-68
2023/12/25 12:07:43;;;;;;;0.30;0.30;;;;;;;;;;5024823;28;20722;-67
2023/12/25 12:10:09;;;;;;;0.30;0.30;;;;;;;;;;5022449;28;20049;-68
2023/12/25 12:12:36;;;;;;;0.40;0.40;;;;;;;;;;5027962;28;20049;-65
2023/12/25 12:15:01;;;;;;;0.52;0.40;;;;;;;;;;5018561;28;20053;-66
2023/12/25 12:17:27;;;;;;;0.40;0.40;;;;;;;;;;5018442;28;20059;-68
2023/12/25 12:19:52;;;;;;;0.30;0.30;;;;;;;;;;5025694;28;20045;-67
2023/12/25 12:22:18;;;;;;;0.50;0.35;;;;;;;;;;5018685;28;20751;-66
2023/12/25 12:24:44;;;;;;;0.68;0.30;;;;;;;;;;5025238;28;20049;-69
2023/12/25 12:27:13;;;;;;;0.47;0.35;;;;;;;;;;5022496;28;20056;-66
2023/12/25 12:29:39;;;;;;;0.25;0.25;;;;;;;;;;5018619;28;20045;-67
2023/12/25 12:32:08;;;;;;;0.30;0.30;;;;;;;;;;5022369;28;20053;-67
2023/12/25 12:34:34;;;;;;;0.47;0.40;;;;;;;;;;5019536;28;20132;-67
2023/12/25 12:37:00;;;;;;;0.40;0.40;;;;;;;;;;5018699;28;20052;-67
2023/12/25 12:39:26;;;;;;;0.40;0.40;;;;;;;;;;5026571;28;20107;-68
2023/12/25 12:41:53;;;;;;;0.30;0.30;;;;;;;;;;5018881;28;20051;-67
2023/12/25 12:44:19;;;;;;;0.28;0.28;;;;;;;;;;5024410;28;21016;-68
2023/12/25 12:46:44;;;;;;;0.40;0.30;;;;;;;;;;5023656;28;20036;-65
2023/12/25 12:49:09;;;;;;;0.70;0.50;;;;;;;;;;5025499;28;20064;-68
2023/12/25 12:51:35;;;;;;;0.20;0.20;;;;;;;;;;5018262;28;20076;-68
2023/12/25 12:54:00;;;;;;;0.30;0.30;;;;;;;;;;5019644;28;20142;-68
2023/12/25 12:56:28;;;;;;;0.30;0.30;;;;;;;;;;5018038;28;20053;-68
2023/12/25 12:58:54;;;;;;;0.20;0.20;;;;;;;;;;5019752;28;20162;-68
2023/12/25 13:01:19;;;;;;;0.35;0.35;;;;;;;;;;5018356;28;20528;-68
2023/12/25 13:03:46;;;;;;;0.28;0.28;;;;;;;;;;5020248;28;20132;-68
2023/12/25 13:06:11;;;;;;;3.92;0.60;;;;;;;;;;5025483;28;20037;-68
2023/12/25 13:08:37;;;;;;;0.38;0.38;;;;;;;;;;5019958;28;20107;-68
2023/12/25 13:11:02;;;;;;;0.25;0.25;;;;;;;;;;5027254;28;20040;-68
2023/12/25 13:13:29;;;;;;;0.30;0.30;;;;;;;;;;5018499;28;20099;-68
2023/12/25 13:15:55;;;;;;;0.43;0.43;;;;;;;;;;5026701;28;20060;-68
2023/12/25 13:18:20;;;;;;;0.35;0.35;;;;;;;;;;5026577;28;20046;-69
2023/12/25 13:20:45;;;;;;;0.47;0.30;;;;;;;;;;5019188;28;21204;-69
2023/12/25 13:23:11;;;;;;;0.22;0.22;;;;;;;;;;5023130;28;20045;-69
2023/12/25 13:25:37;;;;;;;0.77;0.40;;;;;;;;;;5018769;28;20091;-69
2023/12/25 13:28:03;;;;;;;0.40;0.40;;;;;;;;;;5022087;28;20305;-70
2023/12/25 13:30:29;;;;;;;0.60;0.32;;;;;;;;;;5022909;28;20041;-67
2023/12/25 13:32:54;;;;;;;0.32;0.32;;;;;;;;;;5029895;28;20053;-68
2023/12/25 13:35:20;;;;;;;0.60;0.52;;;;;;;;;;5025246;28;20045;-67
2023/12/25 13:37:45;;;;;;;0.30;0.30;;;;;;;;;;5028038;28;20048;-68
2023/12/25 13:40:12;;;;;;;0.43;0.43;;;;;;;;;;5021528;28;20766;-68
2023/12/25 13:42:37;;;;;;;0.65;0.50;;;;;;;;;;5029053;28;20132;-68
2023/12/25 13:45:04;;;;;;;0.30;0.30;;;;;;;;;;5031965;28;20152;-68
2023/12/25 13:47:29;;;;;;;0.32;0.30;;;;;;;;;;5023315;28;20045;-68
2023/12/25 13:49:56;;;;;;;2.45;0.30;;;;;;;;;;5017510;28;20075;-67
2023/12/25 13:52:23;;;;;;;0.30;0.30;;;;;;;;;;5021540;28;20060;-68
2023/12/25 13:54:48;;;;;;;0.30;0.30;;;;;;;;;;5022994;28;20046;-68
2023/12/25 13:57:13;;;;;;;0.40;0.40;;;;;;;;;;5021794;28;20041;-68
2023/12/25 13:59:39;;;;;;;0.30;0.30;;;;;;;;;;5027900;28;20075;-68
2023/12/25 14:02:07;;;;;;;0.30;0.30;;;;;;;;;;5021123;28;20168;-68
2023/12/25 14:04:34;;;;;;;0.63;0.40;;;;;;;;;;5021121;28;20132;-67
2023/12/25 14:07:00;;;;;;;0.35;0.35;;;;;;;;;;5021481;28;20060;-68
2023/12/25 14:09:26;;;;;;;0.20;0.20;;;;;;;;;;5027969;28;20056;-67
2023/12/25 14:11:51;;;;;;;0.30;0.30;;;;;;;;;;5021543;28;20970;-67
2023/12/25 14:14:17;;;;;;;0.28;0.28;;;;;;;;;;5026865;28;20132;-68
2023/12/25 14:16:42;;;;;;;0.30;0.30;;;;;;;;;;5030686;28;20053;-68
2023/12/25 14:19:08;;;;;;;0.45;0.45;;;;;;;;;;5024308;28;20136;-67
2023/12/25 14:21:33;;;;;;;0.20;0.20;;;;;;;;;;5021624;28;20041;-68
2023/12/25 14:23:59;;;;;;;0.55;0.30;;;;;;;;;;5021474;28;20055;-68
2023/12/25 14:26:24;;;;;;;0.55;0.50;;;;;;;;;;5021040;28;20050;-67
2023/12/25 14:28:50;;;;;;;0.73;0.50;;;;;;;;;;5020977;28;20416;-67
2023/12/25 14:31:15;;;;;;;0.40;0.40;;;;;;;;;;5027071;28;20607;-68
2023/12/25 14:33:43;;;;;;;0.20;0.20;;;;;;;;;;5020759;28;20328;-67
2023/12/25 14:36:09;;;;;;;0.32;0.32;;;;;;;;;;5028771;28;20045;-68
2023/12/25 14:38:35;;;;;;;0.30;0.30;;;;;;;;;;5021063;28;20077;-67